Flight Track Log - Related Links

Times and Time Zones

All times are in EDT time to prevent confusion due to time zone crossing. See the TCF653 flight status page for this flight to view local times or setup timezone preferences in your user account.

Time Position Orientation Groundspeed Altitude Reporting Facility
EDT Latitude Longitude Course Direction KTS MPH feet Rate Location/Type
Sat 01:31:46 AM 42.0167 -87.9500 95° East 176 203 1,900  Level Chicago TRACON
Sat 01:32:46 AM 42.0667 -88.0000 323° Northwest 264 304 3,700 1,550 Climbing Chicago TRACON
Sat 01:33:46 AM 42.1000 -87.9333 56° Northeast 268 308 5,000 545 Climbing Chicago TRACON
Sat 01:35:53 AM 42.0917 -87.7464 93° East 250 288 5,400 1,213 Climbing Chicago Center
Sat 01:36:54 AM 42.0725 -87.6544 106° East 252 290 8,800 2,628 Climbing Chicago Center
Sat 01:37:00 AM 41.9363 -87.1745 95° East  Level FlightAware Approximate
Sat 01:37:54 AM 42.0550 -87.5481 102° East 282 325 10,700  Level Chicago Center
Sat 01:38:55 AM 42.0367 -87.4192 101° East 339 390 12,800 2,380 Climbing Chicago Center
Sat 01:39:55 AM 42.0175 -87.2853 101° East 358 412 15,500 2,550 Climbing Chicago Center
Sat 01:40:55 AM 41.9975 -87.1500 101° East 367 422 17,900 2,231 Climbing Chicago Center
Sat 01:41:56 AM 41.9775 -87.0147 101° East 371 427 20,000 1,736 Climbing Chicago Center
Sat 01:42:56 AM 41.9569 -86.8708 101° East 388 447 21,400 1,400 Climbing Chicago Center
Sat 01:43:56 AM 41.9333 -86.7203 102° East 409 471 22,800 800 Climbing Chicago Center
Sat 01:44:56 AM 41.8697 -86.5719 120° Southeast 417 480 23,000 99 Climbing Chicago Center
Sat 01:45:57 AM 41.8072 -86.4428 123° Southeast 415 478 23,000  Level Chicago Center
Sat 01:46:57 AM 41.7456 -86.3131 122° Southeast 415 478 23,000  Level Chicago Center
Sat 01:47:57 AM 41.6814 -86.1836 124° Southeast 418 481 23,000  Level Chicago Center
Sat 01:48:57 AM 41.6206 -86.0569 123° Southeast 410 472 23,000  Level Chicago Center
Sat 01:49:58 AM 41.5592 -85.9303 123° Southeast 410 472 23,000  Level Chicago Center
Sat 01:50:58 AM 41.4967 -85.8036 123° Southeast 410 472 23,000  Level Chicago Center
Sat 01:51:58 AM 41.4339 -85.6778 124° Southeast 412 474 23,000  Level Chicago Center
Sat 01:52:59 AM 41.3728 -85.5511 123° Southeast 414 476 23,000  Level Chicago Center
Sat 01:53:59 AM 41.3108 -85.4272 124° Southeast 409 471 23,000  Level Chicago Center
Sat 01:54:59 AM 41.2481 -85.3003 123° Southeast 413 475 23,000  Level Chicago Center
Sat 01:55:59 AM 41.1853 -85.1744 124° Southeast 412 474 23,000  Level Chicago Center
Sat 01:57:00 AM 41.1242 -85.0500 123° Southeast 408 470 23,000  Level Chicago Center
Sat 01:58:00 AM 41.0622 -84.9289 124° Southeast 402 463 23,000  Level Chicago Center
Sat 02:00:00 AM 40.9411 -84.6883 124° Southeast 394 453 23,000  Level Chicago Center
Sat 02:01:01 AM 40.8789 -84.5694 125° Southeast 394 453 23,000  Level Chicago Center
Sat 02:01:29 AM 40.8492 -84.5092 123° Southeast 390 449 23,000  Level Indianapolis Center
Sat 02:02:01 AM 40.8192 -84.4517 125° Southeast 390 449 23,000  Level Chicago Center
Sat 02:03:01 AM 40.7581 -84.3336 124° Southeast 389 448 23,000  Level Chicago Center
Sat 02:03:29 AM 40.7256 -84.2703 124° Southeast 391 450 23,000  Level Indianapolis Center
Sat 02:04:30 AM 40.6639 -84.1511 124° Southeast 389 448 23,000  Level Indianapolis Center
Sat 02:05:30 AM 40.6031 -84.0319 124° Southeast 389 448 23,000 -950 Level Indianapolis Center
Sat 02:06:30 AM 40.5400 -83.9131 125° Southeast 391 450 21,100 -2,051 Descending Indianapolis Center
Sat 02:07:27 AM 40.4739 -83.7922 126° Southeast 384 442 19,000 -2,050 Descending Indianapolis Center
Sat 02:08:30 AM 40.4183 -83.6808 123° Southeast 379 436 17,000 -2,177 Descending Indianapolis Center
Sat 02:09:31 AM 40.3536 -83.5778 129° Southeast 366 421 14,500 -2,529 Descending Indianapolis Center
Sat 02:10:31 AM 40.2928 -83.4781 129° Southeast 351 404 11,900 -2,150 Descending Indianapolis Center
Sat 02:11:31 AM 40.2358 -83.3889 130° Southeast 322 371 10,200 -1,550 Descending Indianapolis Center
Sat 02:12:31 AM 40.1881 -83.3136 130° Southeast 270 311 8,800 -1,800 Descending Indianapolis Center
Sat 02:13:31 AM 40.1419 -83.2386 129° Southeast 261 300 6,600 -2,000 Descending Indianapolis Center
Sat 02:14:31 AM 40.0972 -83.1667 129° Southeast 257 296 4,800 -1,500 Descending Indianapolis Center
Sat 02:15:31 AM 40.0683 -83.1200 129° Southeast 252 290 3,600 -1,150 Descending Indianapolis Center
Sat 02:16:31 AM 40.0219 -83.0486 130° Southeast 232 267 2,500 -793 Descending Indianapolis Center
Sat 02:17:32 AM 40.0078 -82.9942 109° East 182 209 2,000 -545 Descending Indianapolis Center
Sat 02:18:32 AM 40.0053 -82.9467 94° East 143 165 1,400 -500 Descending Indianapolis Center
Sat 02:19:32 AM 40.0036 -82.8992 93° East 135 155 1,000 -400 Descending Indianapolis Center
Sat 02:21:00 AM 39.9980 -82.8920 131° Southeast  Level Estimated

Login

Don't have an account? Register now (free) for customized features, flight alerts, and more!